Danville, Virginia
Current Conditions -  °F | °C
As of 12:53 AM on Monday 22 Dec 2014 (Local Time) from KDAN Reporting Station
Overcast Overcast  
Wind Chill: 34°   Ceiling: 4800
Heat Index: 39°   Visibility: 10mi
Dew Point: 30°   Wind: 7mph
Humidity: 70%   Direction: 50°NE
Pressure: 30.24"   Gusts: NA
Location:  36.59°N, 79.42°W
Report Text: KDAN 220553Z AUTO 05006KT 10SM SCT037 OVC048 04/M01 A3024 RMK AO2 SLP238 T00391011 10044 20022 50001
Loading
Personal Weather Stations






























Interactive Weather Map New forecast layout! Learn more

10-Day Weather Forecast

Advertisements
Track Severe Weather on mobile